sensor_id;sensor_type;location;lat;lon;timestamp;temperature;humidity
17178;DHT22;8704;52.006;4.374;2023-05-06T00:01:05;12.70;1.00
17178;DHT22;8704;52.006;4.374;2023-05-06T00:03:33;13.10;1.00
17178;DHT22;8704;52.006;4.374;2023-05-06T00:06:03;13.00;1.00
17178;DHT22;8704;52.006;4.374;2023-05-06T00:08:32;12.90;1.00
17178;DHT22;8704;52.006;4.374;2023-05-06T00:11:00;13.20;1.00
17178;DHT22;8704;52.006;4.374;2023-05-06T00:13:28;13.10;1.00
17178;DHT22;8704;52.006;4.374;2023-05-06T00:15:56;12.90;1.00
17178;DHT22;8704;52.006;4.374;2023-05-06T00:18:24;12.70;1.00
17178;DHT22;8704;52.006;4.374;2023-05-06T00:20:52;13.00;1.00
17178;DHT22;8704;52.006;4.374;2023-05-06T00:23:22;13.30;1.00
17178;DHT22;8704;52.006;4.374;2023-05-06T00:25:50;13.40;1.00
17178;DHT22;8704;52.006;4.374;2023-05-06T00:28:19;12.70;1.00
17178;DHT22;8704;52.006;4.374;2023-05-06T00:30:47;12.90;1.00
17178;DHT22;8704;52.006;4.374;2023-05-06T00:33:15;13.10;1.00
17178;DHT22;8704;52.006;4.374;2023-05-06T00:35:43;12.90;1.00
17178;DHT22;8704;52.006;4.374;2023-05-06T00:38:12;12.80;1.00
17178;DHT22;8704;52.006;4.374;2023-05-06T00:40:42;12.90;1.00
17178;DHT22;8704;52.006;4.374;2023-05-06T00:43:10;12.80;1.00
17178;DHT22;8704;52.006;4.374;2023-05-06T00:45:39;12.70;1.00
17178;DHT22;8704;52.006;4.374;2023-05-06T00:48:07;12.90;1.00
17178;DHT22;8704;52.006;4.374;2023-05-06T00:50:35;13.00;1.00
17178;DHT22;8704;52.006;4.374;2023-05-06T00:53:08;12.70;1.00
17178;DHT22;8704;52.006;4.374;2023-05-06T00:55:37;12.80;1.00
17178;DHT22;8704;52.006;4.374;2023-05-06T00:58:07;12.70;1.00
17178;DHT22;8704;52.006;4.374;2023-05-06T01:00:35;12.70;1.00
17178;DHT22;8704;52.006;4.374;2023-05-06T01:03:03;12.70;1.00
17178;DHT22;8704;52.006;4.374;2023-05-06T01:05:34;12.50;1.00
17178;DHT22;8704;52.006;4.374;2023-05-06T01:08:14;12.50;1.00
17178;DHT22;8704;52.006;4.374;2023-05-06T01:10:46;12.30;1.00
17178;DHT22;8704;52.006;4.374;2023-05-06T01:13:27;12.60;1.00
17178;DHT22;8704;52.006;4.374;2023-05-06T01:15:58;12.70;1.00
17178;DHT22;8704;52.006;4.374;2023-05-06T01:18:30;12.50;1.00
17178;DHT22;8704;52.006;4.374;2023-05-06T01:20:59;12.40;1.00
17178;DHT22;8704;52.006;4.374;2023-05-06T01:23:49;12.80;1.00
17178;DHT22;8704;52.006;4.374;2023-05-06T01:26:17;12.70;1.00
17178;DHT22;8704;52.006;4.374;2023-05-06T01:28:45;12.30;1.00
17178;DHT22;8704;52.006;4.374;2023-05-06T01:31:16;12.60;1.00
17178;DHT22;8704;52.006;4.374;2023-05-06T01:33:52;12.40;1.00
17178;DHT22;8704;52.006;4.374;2023-05-06T01:36:24;12.30;1.00
17178;DHT22;8704;52.006;4.374;2023-05-06T01:39:00;12.30;1.00
17178;DHT22;8704;52.006;4.374;2023-05-06T01:41:30;12.10;1.00
17178;DHT22;8704;52.006;4.374;2023-05-06T01:44:00;12.30;1.00
17178;DHT22;8704;52.006;4.374;2023-05-06T01:46:29;12.20;1.00
17178;DHT22;8704;52.006;4.374;2023-05-06T01:49:01;12.10;1.00
17178;DHT22;8704;52.006;4.374;2023-05-06T01:51:31;12.30;1.00
17178;DHT22;8704;52.006;4.374;2023-05-06T01:54:01;12.50;1.00
17178;DHT22;8704;52.006;4.374;2023-05-06T01:56:29;12.40;1.00
17178;DHT22;8704;52.006;4.374;2023-05-06T01:58:57;12.50;1.00
17178;DHT22;8704;52.006;4.374;2023-05-06T02:01:25;12.00;1.00
17178;DHT22;8704;52.006;4.374;2023-05-06T02:03:53;11.70;1.00
17178;DHT22;8704;52.006;4.374;2023-05-06T02:06:22;11.90;1.00
17178;DHT22;8704;52.006;4.374;2023-05-06T02:08:50;12.30;1.00
17178;DHT22;8704;52.006;4.374;2023-05-06T02:11:19;12.30;1.00
17178;DHT22;8704;52.006;4.374;2023-05-06T02:13:47;11.80;1.00
17178;DHT22;8704;52.006;4.374;2023-05-06T02:16:15;11.90;1.00
17178;DHT22;8704;52.006;4.374;2023-05-06T02:18:43;12.10;1.00
17178;DHT22;8704;52.006;4.374;2023-05-06T02:21:11;12.00;1.00
17178;DHT22;8704;52.006;4.374;2023-05-06T02:23:39;11.90;1.00
17178;DHT22;8704;52.006;4.374;2023-05-06T02:26:07;12.50;1.00
17178;DHT22;8704;52.006;4.374;2023-05-06T02:28:37;12.20;1.00
17178;DHT22;8704;52.006;4.374;2023-05-06T02:31:05;11.70;1.00
17178;DHT22;8704;52.006;4.374;2023-05-06T02:33:33;12.10;1.00
17178;DHT22;8704;52.006;4.374;2023-05-06T02:36:01;11.80;1.00
17178;DHT22;8704;52.006;4.374;2023-05-06T02:38:29;11.50;99.90
17178;DHT22;8704;52.006;4.374;2023-05-06T02:40:57;11.90;1.00
17178;DHT22;8704;52.006;4.374;2023-05-06T02:43:25;11.60;1.00
17178;DHT22;8704;52.006;4.374;2023-05-06T02:45:55;11.50;1.00
17178;DHT22;8704;52.006;4.374;2023-05-06T02:48:23;11.50;99.90
17178;DHT22;8704;52.006;4.374;2023-05-06T02:50:51;11.40;99.90
17178;DHT22;8704;52.006;4.374;2023-05-06T02:53:19;11.50;1.00
17178;DHT22;8704;52.006;4.374;2023-05-06T02:55:47;12.00;1.00
17178;DHT22;8704;52.006;4.374;2023-05-06T02:58:15;11.80;1.00
17178;DHT22;8704;52.006;4.374;2023-05-06T03:00:43;11.60;1.00
17178;DHT22;8704;52.006;4.374;2023-05-06T03:03:13;11.50;1.00
17178;DHT22;8704;52.006;4.374;2023-05-06T03:05:41;11.90;1.00
17178;DHT22;8704;52.006;4.374;2023-05-06T03:08:08;11.60;1.00
17178;DHT22;8704;52.006;4.374;2023-05-06T03:10:36;11.80;1.00
17178;DHT22;8704;52.006;4.374;2023-05-06T03:13:04;11.60;1.00
17178;DHT22;8704;52.006;4.374;2023-05-06T03:15:32;11.70;1.00
17178;DHT22;8704;52.006;4.374;2023-05-06T03:18:00;11.40;1.00
17178;DHT22;8704;52.006;4.374;2023-05-06T03:20:30;11.70;1.00
17178;DHT22;8704;52.006;4.374;2023-05-06T03:22:58;11.40;1.00
17178;DHT22;8704;52.006;4.374;2023-05-06T03:25:26;11.40;1.00
17178;DHT22;8704;52.006;4.374;2023-05-06T03:27:54;11.40;1.00
17178;DHT22;8704;52.006;4.374;2023-05-06T03:30:22;11.60;1.00
17178;DHT22;8704;52.006;4.374;2023-05-06T03:32:50;11.40;1.00
17178;DHT22;8704;52.006;4.374;2023-05-06T03:35:18;11.20;1.00
17178;DHT22;8704;52.006;4.374;2023-05-06T03:37:48;11.80;1.00
17178;DHT22;8704;52.006;4.374;2023-05-06T03:40:16;11.80;1.00
17178;DHT22;8704;52.006;4.374;2023-05-06T03:42:44;11.30;1.00
17178;DHT22;8704;52.006;4.374;2023-05-06T03:45:12;11.70;1.00
17178;DHT22;8704;52.006;4.374;2023-05-06T03:47:40;11.40;1.00
17178;DHT22;8704;52.006;4.374;2023-05-06T03:50:09;11.40;1.00
17178;DHT22;8704;52.006;4.374;2023-05-06T03:52:37;11.30;1.00
17178;DHT22;8704;52.006;4.374;2023-05-06T03:55:08;11.50;1.00
17178;DHT22;8704;52.006;4.374;2023-05-06T03:57:37;11.40;1.00
17178;DHT22;8704;52.006;4.374;2023-05-06T04:00:06;11.40;1.00
17178;DHT22;8704;52.006;4.374;2023-05-06T04:02:34;11.40;1.00
17178;DHT22;8704;52.006;4.374;2023-05-06T04:05:04;11.70;1.00
17178;DHT22;8704;52.006;4.374;2023-05-06T04:07:33;11.40;1.00
17178;DHT22;8704;52.006;4.374;2023-05-06T04:10:01;11.50;11.50
17178;DHT22;8704;52.006;4.374;2023-05-06T04:12:31;11.70;33.70
17178;DHT22;8704;52.006;4.374;2023-05-06T04:14:59;11.70;47.10
17178;DHT22;8704;52.006;4.374;2023-05-06T04:17:27;11.50;31.00
17178;DHT22;8704;52.006;4.374;2023-05-06T04:19:55;11.50;41.60
17178;DHT22;8704;52.006;4.374;2023-05-06T04:22:23;11.60;53.30
17178;DHT22;8704;52.006;4.374;2023-05-06T04:24:51;11.40;5.80
17178;DHT22;8704;52.006;4.374;2023-05-06T04:27:19;11.50;53.30
17178;DHT22;8704;52.006;4.374;2023-05-06T04:29:48;11.40;41.40
17178;DHT22;8704;52.006;4.374;2023-05-06T04:32:16;11.40;53.50
17178;DHT22;8704;52.006;4.374;2023-05-06T04:34:44;11.60;36.80
17178;DHT22;8704;52.006;4.374;2023-05-06T04:37:13;11.40;55.20
17178;DHT22;8704;52.006;4.374;2023-05-06T04:39:41;11.70;89.30
17178;DHT22;8704;52.006;4.374;2023-05-06T04:42:13;11.60;91.00
17178;DHT22;8704;52.006;4.374;2023-05-06T04:44:42;11.60;99.90
17178;DHT22;8704;52.006;4.374;2023-05-06T04:47:11;11.50;99.90
17178;DHT22;8704;52.006;4.374;2023-05-06T04:49:40;11.50;99.90
17178;DHT22;8704;52.006;4.374;2023-05-06T04:52:08;11.60;99.90
17178;DHT22;8704;52.006;4.374;2023-05-06T04:54:36;11.70;99.90
17178;DHT22;8704;52.006;4.374;2023-05-06T04:57:04;12.20;99.90
17178;DHT22;8704;52.006;4.374;2023-05-06T04:59:32;11.50;99.90
17178;DHT22;8704;52.006;4.374;2023-05-06T05:02:00;11.60;99.90
17178;DHT22;8704;52.006;4.374;2023-05-06T05:04:29;11.60;99.90
17178;DHT22;8704;52.006;4.374;2023-05-06T05:06:57;11.70;99.90
17178;DHT22;8704;52.006;4.374;2023-05-06T05:09:25;11.70;99.90
17178;DHT22;8704;52.006;4.374;2023-05-06T05:11:53;11.70;99.90
17178;DHT22;8704;52.006;4.374;2023-05-06T05:14:21;11.90;1.00
17178;DHT22;8704;52.006;4.374;2023-05-06T05:16:49;12.00;1.00
17178;DHT22;8704;52.006;4.374;2023-05-06T05:19:17;11.80;1.00
17178;DHT22;8704;52.006;4.374;2023-05-06T05:21:46;11.90;99.90
17178;DHT22;8704;52.006;4.374;2023-05-06T05:24:14;12.10;1.00
17178;DHT22;8704;52.006;4.374;2023-05-06T05:26:42;12.20;1.00
17178;DHT22;8704;52.006;4.374;2023-05-06T05:29:10;12.00;99.90
17178;DHT22;8704;52.006;4.374;2023-05-06T05:31:38;12.10;99.90
17178;DHT22;8704;52.006;4.374;2023-05-06T05:34:07;12.60;99.90
17178;DHT22;8704;52.006;4.374;2023-05-06T05:36:35;12.50;99.90
17178;DHT22;8704;52.006;4.374;2023-05-06T05:39:04;12.40;99.90
17178;DHT22;8704;52.006;4.374;2023-05-06T05:41:32;12.40;99.90
17178;DHT22;8704;52.006;4.374;2023-05-06T05:44:00;12.40;99.90
17178;DHT22;8704;52.006;4.374;2023-05-06T05:46:28;12.70;99.90
17178;DHT22;8704;52.006;4.374;2023-05-06T05:48:56;12.50;99.90
17178;DHT22;8704;52.006;4.374;2023-05-06T05:51:24;12.80;99.90
17178;DHT22;8704;52.006;4.374;2023-05-06T05:53:52;13.10;99.90
17178;DHT22;8704;52.006;4.374;2023-05-06T05:56:22;12.50;1.00
17178;DHT22;8704;52.006;4.374;2023-05-06T05:58:50;12.70;1.00
17178;DHT22;8704;52.006;4.374;2023-05-06T06:01:18;12.50;1.00
17178;DHT22;8704;52.006;4.374;2023-05-06T06:03:46;12.90;1.00
17178;DHT22;8704;52.006;4.374;2023-05-06T06:06:14;12.90;1.00
17178;DHT22;8704;52.006;4.374;2023-05-06T06:08:42;12.90;1.00
17178;DHT22;8704;52.006;4.374;2023-05-06T06:11:10;13.00;1.00
17178;DHT22;8704;52.006;4.374;2023-05-06T06:13:39;13.00;1.00
17178;DHT22;8704;52.006;4.374;2023-05-06T06:16:08;12.90;1.00
17178;DHT22;8704;52.006;4.374;2023-05-06T06:18:36;13.10;1.00
17178;DHT22;8704;52.006;4.374;2023-05-06T06:21:04;12.80;1.00
17178;DHT22;8704;52.006;4.374;2023-05-06T06:23:32;13.00;1.00
17178;DHT22;8704;52.006;4.374;2023-05-06T06:26:01;13.10;1.00
17178;DHT22;8704;52.006;4.374;2023-05-06T06:28:29;13.60;1.00
17178;DHT22;8704;52.006;4.374;2023-05-06T06:30:59;13.10;1.00
17178;DHT22;8704;52.006;4.374;2023-05-06T06:33:27;13.10;1.00
17178;DHT22;8704;52.006;4.374;2023-05-06T06:35:56;13.00;1.00
17178;DHT22;8704;52.006;4.374;2023-05-06T06:38:24;13.10;1.00
17178;DHT22;8704;52.006;4.374;2023-05-06T06:40:52;13.30;1.00
17178;DHT22;8704;52.006;4.374;2023-05-06T06:43:20;13.30;1.00
17178;DHT22;8704;52.006;4.374;2023-05-06T06:45:49;13.80;1.00
17178;DHT22;8704;52.006;4.374;2023-05-06T06:48:19;13.50;1.00
17178;DHT22;8704;52.006;4.374;2023-05-06T06:50:47;13.60;1.00
17178;DHT22;8704;52.006;4.374;2023-05-06T06:53:15;13.30;1.00
17178;DHT22;8704;52.006;4.374;2023-05-06T06:55:43;13.60;1.00
17178;DHT22;8704;52.006;4.374;2023-05-06T06:58:11;13.80;1.00
17178;DHT22;8704;52.006;4.374;2023-05-06T07:00:39;13.70;1.00
17178;DHT22;8704;52.006;4.374;2023-05-06T07:03:07;13.70;1.00
17178;DHT22;8704;52.006;4.374;2023-05-06T07:05:37;14.30;1.00
17178;DHT22;8704;52.006;4.374;2023-05-06T07:08:05;14.00;1.00
17178;DHT22;8704;52.006;4.374;2023-05-06T07:10:33;14.20;1.00
17178;DHT22;8704;52.006;4.374;2023-05-06T07:13:01;14.50;1.00
17178;DHT22;8704;52.006;4.374;2023-05-06T07:15:29;14.30;1.00
17178;DHT22;8704;52.006;4.374;2023-05-06T07:17:57;14.70;1.00
17178;DHT22;8704;52.006;4.374;2023-05-06T07:20:25;14.70;1.00
17178;DHT22;8704;52.006;4.374;2023-05-06T07:22:55;14.50;99.90
17178;DHT22;8704;52.006;4.374;2023-05-06T07:25:23;14.60;99.90
17178;DHT22;8704;52.006;4.374;2023-05-06T07:27:51;14.70;99.90
17178;DHT22;8704;52.006;4.374;2023-05-06T07:30:19;14.90;99.90
17178;DHT22;8704;52.006;4.374;2023-05-06T07:32:50;14.90;99.90
17178;DHT22;8704;52.006;4.374;2023-05-06T07:35:19;15.00;99.90
17178;DHT22;8704;52.006;4.374;2023-05-06T07:37:47;15.20;99.90
17178;DHT22;8704;52.006;4.374;2023-05-06T07:40:16;15.30;99.90
17178;DHT22;8704;52.006;4.374;2023-05-06T07:42:44;15.40;99.90
17178;DHT22;8704;52.006;4.374;2023-05-06T07:45:12;16.10;99.90
17178;DHT22;8704;52.006;4.374;2023-05-06T07:47:40;15.60;99.90
17178;DHT22;8704;52.006;4.374;2023-05-06T07:50:09;15.30;99.90
17178;DHT22;8704;52.006;4.374;2023-05-06T07:52:37;15.90;99.90
17178;DHT22;8704;52.006;4.374;2023-05-06T07:55:06;15.40;76.70
17178;DHT22;8704;52.006;4.374;2023-05-06T07:57:37;15.80;86.00
17178;DHT22;8704;52.006;4.374;2023-05-06T08:00:06;15.90;99.90
17178;DHT22;8704;52.006;4.374;2023-05-06T08:02:35;16.10;27.90
17178;DHT22;8704;52.006;4.374;2023-05-06T08:05:06;16.30;99.90
17178;DHT22;8704;52.006;4.374;2023-05-06T08:07:34;16.10;65.70
17178;DHT22;8704;52.006;4.374;2023-05-06T08:10:03;16.30;99.20
17178;DHT22;8704;52.006;4.374;2023-05-06T08:12:31;16.50;95.10
17178;DHT22;8704;52.006;4.374;2023-05-06T08:15:01;16.40;99.50
17178;DHT22;8704;52.006;4.374;2023-05-06T08:17:29;16.40;99.90
17178;DHT22;8704;52.006;4.374;2023-05-06T08:19:57;16.90;99.90
17178;DHT22;8704;52.006;4.374;2023-05-06T08:22:25;17.00;99.90
17178;DHT22;8704;52.006;4.374;2023-05-06T08:24:53;17.00;99.90
17178;DHT22;8704;52.006;4.374;2023-05-06T08:27:23;16.60;95.20
17178;DHT22;8704;52.006;4.374;2023-05-06T08:29:51;16.70;99.90
17178;DHT22;8704;52.006;4.374;2023-05-06T08:32:20;16.80;56.80
17178;DHT22;8704;52.006;4.374;2023-05-06T08:34:48;17.00;56.10
17178;DHT22;8704;52.006;4.374;2023-05-06T08:37:17;17.10;1.00
17178;DHT22;8704;52.006;4.374;2023-05-06T08:39:44;17.00;1.00
17178;DHT22;8704;52.006;4.374;2023-05-06T08:42:12;16.80;1.00
17178;DHT22;8704;52.006;4.374;2023-05-06T08:44:43;17.30;1.00
17178;DHT22;8704;52.006;4.374;2023-05-06T08:47:35;17.30;1.00
17178;DHT22;8704;52.006;4.374;2023-05-06T08:50:04;17.40;28.30
17178;DHT22;8704;52.006;4.374;2023-05-06T08:52:32;17.50;1.60
17178;DHT22;8704;52.006;4.374;2023-05-06T08:55:02;17.20;19.70
17178;DHT22;8704;52.006;4.374;2023-05-06T08:57:32;17.50;1.00
17178;DHT22;8704;52.006;4.374;2023-05-06T09:00:00;17.40;1.00
17178;DHT22;8704;52.006;4.374;2023-05-06T09:02:29;17.60;1.00
17178;DHT22;8704;52.006;4.374;2023-05-06T09:04:59;17.70;1.00
17178;DHT22;8704;52.006;4.374;2023-05-06T09:07:27;17.70;1.00
17178;DHT22;8704;52.006;4.374;2023-05-06T09:09:55;18.00;1.00
17178;DHT22;8704;52.006;4.374;2023-05-06T09:12:23;17.80;1.00
17178;DHT22;8704;52.006;4.374;2023-05-06T09:14:52;18.00;1.00
17178;DHT22;8704;52.006;4.374;2023-05-06T09:17:22;17.90;1.00
17178;DHT22;8704;52.006;4.374;2023-05-06T09:19:54;17.80;1.00
17178;DHT22;8704;52.006;4.374;2023-05-06T09:22:25;18.20;1.00
17178;DHT22;8704;52.006;4.374;2023-05-06T09:24:57;18.00;1.00
17178;DHT22;8704;52.006;4.374;2023-05-06T09:27:27;18.50;1.00
17178;DHT22;8704;52.006;4.374;2023-05-06T09:30:00;18.40;1.00
17178;DHT22;8704;52.006;4.374;2023-05-06T09:32:28;18.30;1.00
17178;DHT22;8704;52.006;4.374;2023-05-06T09:34:57;18.80;1.00
17178;DHT22;8704;52.006;4.374;2023-05-06T09:37:27;18.70;1.00
17178;DHT22;8704;52.006;4.374;2023-05-06T09:39:57;18.50;1.00
17178;DHT22;8704;52.006;4.374;2023-05-06T09:42:26;18.80;1.00
17178;DHT22;8704;52.006;4.374;2023-05-06T09:44:55;19.00;1.00
17178;DHT22;8704;52.006;4.374;2023-05-06T09:47:33;18.70;1.00
17178;DHT22;8704;52.006;4.374;2023-05-06T09:50:02;18.80;1.00
17178;DHT22;8704;52.006;4.374;2023-05-06T09:52:32;18.90;1.00
17178;DHT22;8704;52.006;4.374;2023-05-06T09:55:01;19.00;1.00
17178;DHT22;8704;52.006;4.374;2023-05-06T09:57:30;19.50;1.00
17178;DHT22;8704;52.006;4.374;2023-05-06T09:59:59;19.20;1.00
17178;DHT22;8704;52.006;4.374;2023-05-06T10:02:28;19.50;1.00
17178;DHT22;8704;52.006;4.374;2023-05-06T10:04:57;19.30;1.00
17178;DHT22;8704;52.006;4.374;2023-05-06T10:07:27;19.20;1.00
17178;DHT22;8704;52.006;4.374;2023-05-06T10:09:58;19.60;1.00
17178;DHT22;8704;52.006;4.374;2023-05-06T10:12:27;19.60;1.00
17178;DHT22;8704;52.006;4.374;2023-05-06T10:14:55;19.60;1.00
17178;DHT22;8704;52.006;4.374;2023-05-06T10:17:24;19.70;1.00
17178;DHT22;8704;52.006;4.374;2023-05-06T10:19:57;19.70;1.00
17178;DHT22;8704;52.006;4.374;2023-05-06T10:22:33;19.80;1.00
17178;DHT22;8704;52.006;4.374;2023-05-06T10:25:09;20.20;1.00
17178;DHT22;8704;52.006;4.374;2023-05-06T10:27:44;20.10;1.00
17178;DHT22;8704;52.006;4.374;2023-05-06T10:30:14;20.20;1.00
17178;DHT22;8704;52.006;4.374;2023-05-06T10:32:43;20.70;1.00
17178;DHT22;8704;52.006;4.374;2023-05-06T10:35:19;20.30;1.00
17178;DHT22;8704;52.006;4.374;2023-05-06T10:37:50;20.40;1.00
17178;DHT22;8704;52.006;4.374;2023-05-06T10:40:21;20.70;1.00
17178;DHT22;8704;52.006;4.374;2023-05-06T10:42:49;20.80;1.00
17178;DHT22;8704;52.006;4.374;2023-05-06T10:45:18;20.80;1.00
17178;DHT22;8704;52.006;4.374;2023-05-06T10:48:05;20.80;1.00
17178;DHT22;8704;52.006;4.374;2023-05-06T10:50:34;20.90;1.00
17178;DHT22;8704;52.006;4.374;2023-05-06T10:53:02;21.10;1.00
17178;DHT22;8704;52.006;4.374;2023-05-06T10:55:32;21.20;1.00
17178;DHT22;8704;52.006;4.374;2023-05-06T10:58:02;21.20;1.00
17178;DHT22;8704;52.006;4.374;2023-05-06T11:00:31;21.50;1.00
17178;DHT22;8704;52.006;4.374;2023-05-06T11:03:06;21.40;1.00
17178;DHT22;8704;52.006;4.374;2023-05-06T11:05:46;21.40;1.00
17178;DHT22;8704;52.006;4.374;2023-05-06T11:08:21;21.50;1.00
17178;DHT22;8704;52.006;4.374;2023-05-06T11:10:50;21.80;1.00
17178;DHT22;8704;52.006;4.374;2023-05-06T11:13:21;21.60;1.00
17178;DHT22;8704;52.006;4.374;2023-05-06T11:15:49;21.50;1.00
17178;DHT22;8704;52.006;4.374;2023-05-06T11:18:40;21.50;1.00
17178;DHT22;8704;52.006;4.374;2023-05-06T11:21:35;21.60;1.00
17178;DHT22;8704;52.006;4.374;2023-05-06T11:24:08;21.80;1.00
17178;DHT22;8704;52.006;4.374;2023-05-06T11:26:39;21.60;1.00
17178;DHT22;8704;52.006;4.374;2023-05-06T11:29:07;21.70;1.00
17178;DHT22;8704;52.006;4.374;2023-05-06T11:31:40;21.80;1.00
17178;DHT22;8704;52.006;4.374;2023-05-06T11:34:11;22.10;1.00
17178;DHT22;8704;52.006;4.374;2023-05-06T11:36:47;22.30;1.00
17178;DHT22;8704;52.006;4.374;2023-05-06T11:39:15;22.10;1.00
17178;DHT22;8704;52.006;4.374;2023-05-06T11:41:45;22.20;1.00
17178;DHT22;8704;52.006;4.374;2023-05-06T11:44:27;22.20;1.00
17178;DHT22;8704;52.006;4.374;2023-05-06T11:46:56;22.30;1.00
17178;DHT22;8704;52.006;4.374;2023-05-06T11:49:25;22.40;1.00
17178;DHT22;8704;52.006;4.374;2023-05-06T11:51:54;22.70;1.00
17178;DHT22;8704;52.006;4.374;2023-05-06T11:54:24;22.60;1.00
17178;DHT22;8704;52.006;4.374;2023-05-06T11:56:55;22.50;1.00
17178;DHT22;8704;52.006;4.374;2023-05-06T11:59:28;22.80;1.00
17178;DHT22;8704;52.006;4.374;2023-05-06T12:01:57;23.10;1.00
17178;DHT22;8704;52.006;4.374;2023-05-06T12:04:26;23.20;1.00
17178;DHT22;8704;52.006;4.374;2023-05-06T12:06:55;23.30;1.00
17178;DHT22;8704;52.006;4.374;2023-05-06T12:09:23;23.70;1.00
17178;DHT22;8704;52.006;4.374;2023-05-06T12:11:53;23.80;1.00
17178;DHT22;8704;52.006;4.374;2023-05-06T12:14:22;23.70;1.00
17178;DHT22;8704;52.006;4.374;2023-05-06T12:16:50;23.80;1.00
17178;DHT22;8704;52.006;4.374;2023-05-06T12:19:21;23.70;1.00
17178;DHT22;8704;52.006;4.374;2023-05-06T12:21:49;23.80;1.00
17178;DHT22;8704;52.006;4.374;2023-05-06T12:24:26;23.50;1.00
17178;DHT22;8704;52.006;4.374;2023-05-06T12:26:56;23.50;1.00
17178;DHT22;8704;52.006;4.374;2023-05-06T12:29:24;23.50;1.00
17178;DHT22;8704;52.006;4.374;2023-05-06T12:32:06;23.30;1.00
17178;DHT22;8704;52.006;4.374;2023-05-06T12:34:35;23.40;1.00
17178;DHT22;8704;52.006;4.374;2023-05-06T12:37:04;23.40;1.00
17178;DHT22;8704;52.006;4.374;2023-05-06T12:39:33;23.20;1.00
17178;DHT22;8704;52.006;4.374;2023-05-06T12:42:03;23.40;1.00
17178;DHT22;8704;52.006;4.374;2023-05-06T12:44:34;23.50;1.00
17178;DHT22;8704;52.006;4.374;2023-05-06T12:47:04;23.80;1.00
17178;DHT22;8704;52.006;4.374;2023-05-06T12:49:46;23.60;1.00
17178;DHT22;8704;52.006;4.374;2023-05-06T12:52:15;23.90;1.00
17178;DHT22;8704;52.006;4.374;2023-05-06T12:54:44;23.90;1.00
17178;DHT22;8704;52.006;4.374;2023-05-06T12:57:14;24.00;1.00
17178;DHT22;8704;52.006;4.374;2023-05-06T12:59:43;24.10;1.00
17178;DHT22;8704;52.006;4.374;2023-05-06T13:02:12;24.00;1.00
17178;DHT22;8704;52.006;4.374;2023-05-06T13:04:40;24.00;1.00
17178;DHT22;8704;52.006;4.374;2023-05-06T13:07:08;24.00;1.00
17178;DHT22;8704;52.006;4.374;2023-05-06T13:09:36;24.00;1.00
17178;DHT22;8704;52.006;4.374;2023-05-06T13:12:05;23.20;1.00
17178;DHT22;8704;52.006;4.374;2023-05-06T13:14:35;23.90;1.00
17178;DHT22;8704;52.006;4.374;2023-05-06T13:17:06;23.70;1.00
17178;DHT22;8704;52.006;4.374;2023-05-06T13:19:34;23.80;1.00
17178;DHT22;8704;52.006;4.374;2023-05-06T13:22:02;23.80;1.00
17178;DHT22;8704;52.006;4.374;2023-05-06T13:24:31;23.70;1.00
17178;DHT22;8704;52.006;4.374;2023-05-06T13:26:59;23.80;1.00
17178;DHT22;8704;52.006;4.374;2023-05-06T13:29:27;24.10;1.00
17178;DHT22;8704;52.006;4.374;2023-05-06T13:31:57;23.80;1.00
17178;DHT22;8704;52.006;4.374;2023-05-06T13:34:26;23.90;1.00
17178;DHT22;8704;52.006;4.374;2023-05-06T13:36:55;23.90;1.00
17178;DHT22;8704;52.006;4.374;2023-05-06T13:39:23;23.90;1.00
17178;DHT22;8704;52.006;4.374;2023-05-06T13:41:51;23.90;1.00
17178;DHT22;8704;52.006;4.374;2023-05-06T13:44:20;23.80;1.00
17178;DHT22;8704;52.006;4.374;2023-05-06T13:46:48;23.60;1.00
17178;DHT22;8704;52.006;4.374;2023-05-06T13:49:18;23.90;1.00
17178;DHT22;8704;52.006;4.374;2023-05-06T13:51:46;23.70;1.00
17178;DHT22;8704;52.006;4.374;2023-05-06T13:54:14;23.80;1.00
17178;DHT22;8704;52.006;4.374;2023-05-06T13:56:42;23.70;1.00
17178;DHT22;8704;52.006;4.374;2023-05-06T13:59:10;23.50;1.00
17178;DHT22;8704;52.006;4.374;2023-05-06T14:01:40;23.40;1.00
17178;DHT22;8704;52.006;4.374;2023-05-06T14:04:08;23.40;1.00
17178;DHT22;8704;52.006;4.374;2023-05-06T14:06:37;23.20;1.00
17178;DHT22;8704;52.006;4.374;2023-05-06T14:09:06;23.00;1.00
17178;DHT22;8704;52.006;4.374;2023-05-06T14:11:34;23.10;1.00
17178;DHT22;8704;52.006;4.374;2023-05-06T14:14:03;23.10;1.00
17178;DHT22;8704;52.006;4.374;2023-05-06T14:16:32;23.30;1.00
17178;DHT22;8704;52.006;4.374;2023-05-06T14:19:00;23.00;1.00
17178;DHT22;8704;52.006;4.374;2023-05-06T14:21:28;23.10;1.00
17178;DHT22;8704;52.006;4.374;2023-05-06T14:23:57;23.20;1.00
17178;DHT22;8704;52.006;4.374;2023-05-06T14:26:26;23.00;1.00
17178;DHT22;8704;52.006;4.374;2023-05-06T14:28:54;23.10;1.00
17178;DHT22;8704;52.006;4.374;2023-05-06T14:31:22;22.40;1.00
17178;DHT22;8704;52.006;4.374;2023-05-06T14:33:50;22.60;1.00
17178;DHT22;8704;52.006;4.374;2023-05-06T14:36:18;23.00;1.00
17178;DHT22;8704;52.006;4.374;2023-05-06T14:38:46;22.80;1.00
17178;DHT22;8704;52.006;4.374;2023-05-06T14:41:15;22.80;1.00
17178;DHT22;8704;52.006;4.374;2023-05-06T14:43:43;22.90;1.00
17178;DHT22;8704;52.006;4.374;2023-05-06T14:46:12;23.00;1.00
17178;DHT22;8704;52.006;4.374;2023-05-06T14:48:41;23.10;1.00
17178;DHT22;8704;52.006;4.374;2023-05-06T14:51:11;23.20;1.00
17178;DHT22;8704;52.006;4.374;2023-05-06T14:53:39;23.10;1.00
17178;DHT22;8704;52.006;4.374;2023-05-06T14:56:08;23.20;1.00
17178;DHT22;8704;52.006;4.374;2023-05-06T14:58:37;23.40;1.00
17178;DHT22;8704;52.006;4.374;2023-05-06T15:01:05;23.20;1.00
17178;DHT22;8704;52.006;4.374;2023-05-06T15:03:34;23.20;1.00
17178;DHT22;8704;52.006;4.374;2023-05-06T15:06:03;23.50;1.00
17178;DHT22;8704;52.006;4.374;2023-05-06T15:08:31;23.30;1.00
17178;DHT22;8704;52.006;4.374;2023-05-06T15:10:59;23.30;1.00
17178;DHT22;8704;52.006;4.374;2023-05-06T15:13:30;23.40;1.00
17178;DHT22;8704;52.006;4.374;2023-05-06T15:15:59;23.00;1.00
17178;DHT22;8704;52.006;4.374;2023-05-06T15:18:27;23.00;1.00
17178;DHT22;8704;52.006;4.374;2023-05-06T15:20:55;22.80;1.00
17178;DHT22;8704;52.006;4.374;2023-05-06T15:23:24;22.60;1.00
17178;DHT22;8704;52.006;4.374;2023-05-06T15:25:52;22.70;1.00
17178;DHT22;8704;52.006;4.374;2023-05-06T15:28:20;22.80;1.00
17178;DHT22;8704;52.006;4.374;2023-05-06T15:30:50;22.80;1.00
17178;DHT22;8704;52.006;4.374;2023-05-06T15:33:19;22.70;1.00
17178;DHT22;8704;52.006;4.374;2023-05-06T15:35:47;22.60;1.00
17178;DHT22;8704;52.006;4.374;2023-05-06T15:38:16;22.40;1.00
17178;DHT22;8704;52.006;4.374;2023-05-06T15:40:49;22.30;1.00
17178;DHT22;8704;52.006;4.374;2023-05-06T15:43:17;22.20;1.00
17178;DHT22;8704;52.006;4.374;2023-05-06T15:45:49;22.10;1.00
17178;DHT22;8704;52.006;4.374;2023-05-06T15:48:17;22.10;1.00
17178;DHT22;8704;52.006;4.374;2023-05-06T15:50:46;22.00;1.00
17178;DHT22;8704;52.006;4.374;2023-05-06T15:53:14;22.10;1.00
17178;DHT22;8704;52.006;4.374;2023-05-06T15:55:42;21.90;1.00
17178;DHT22;8704;52.006;4.374;2023-05-06T15:58:22;21.90;1.00
17178;DHT22;8704;52.006;4.374;2023-05-06T16:00:51;21.80;1.00
17178;DHT22;8704;52.006;4.374;2023-05-06T16:03:19;21.90;1.00
17178;DHT22;8704;52.006;4.374;2023-05-06T16:05:51;21.80;1.00
17178;DHT22;8704;52.006;4.374;2023-05-06T16:08:20;21.80;1.00
17178;DHT22;8704;52.006;4.374;2023-05-06T16:10:48;21.30;1.00
17178;DHT22;8704;52.006;4.374;2023-05-06T16:13:16;21.50;1.00